Time;durP1;ratioP1;P1;durP2;ratioP2;P2;SDS_P1;SDS_P2;PMS_P1;PMS_P2;Temp;Humidity;BMP_temperature;BMP_pressure;BME280_temperature;BME280_humidity;BME280_pressure;Samples;Min_cycle;Max_cycle;Signal;HPM_P1;HPM_P2
2022/01/02 00:42:59;;;;;;;;;;;13.20;99.90;;;;;;7351699;19;109153;-89
2022/01/02 00:45:27;;;;;;;;;;;13.20;99.90;;;;;;7346186;19;113640;-88
2022/01/02 00:48:15;;;;;;;;;;;13.10;99.90;;;;;;7348127;19;109527;-89
2022/01/02 00:50:45;;;;;;;;;;;13.10;99.90;;;;;;7346326;19;113790;-88
2022/01/02 00:53:15;;;;;;;;;;;13.10;99.90;;;;;;7349022;19;113891;-87
2022/01/02 00:55:43;;;;;;;;;;;13.10;99.90;;;;;;7347521;19;109427;-89
2022/01/02 00:58:19;;;;;;;;;;;13.10;99.90;;;;;;7347479;19;111407;-89
2022/01/02 01:00:53;;;;;;;;;;;13.10;99.90;;;;;;7353497;19;111436;-90
2022/01/02 01:03:25;;;;;;;;;;;13.10;99.90;;;;;;7345399;19;112088;-89
2022/01/02 01:05:57;;;;;;;;;;;13.10;99.90;;;;;;7348923;19;116091;-91
2022/01/02 01:08:29;;;;;;;;;;;13.10;99.90;;;;;;7348653;19;109405;-90
2022/01/02 01:11:04;;;;;;;;;;;13.10;99.90;;;;;;7348516;19;113269;-92
2022/01/02 01:13:32;;;;;;;;;;;13.10;99.90;;;;;;7350006;19;114724;-90
2022/01/02 01:16:00;;;;;;;;;;;13.10;99.90;;;;;;7347419;19;109361;-92
2022/01/02 01:18:27;;;;;;;;;;;13.00;99.90;;;;;;7350359;19;113987;-90
2022/01/02 01:20:56;;;;;;;;;;;13.00;99.90;;;;;;7345302;19;114617;-90
2022/01/02 01:23:23;;;;;;;;;;;13.00;99.90;;;;;;7353520;19;109377;-89
2022/01/02 01:25:51;;;;;;;;;;;13.00;99.90;;;;;;7349331;19;114093;-90
2022/01/02 01:28:18;;;;;;;;;;;13.00;99.90;;;;;;7348020;19;109329;-91
2022/01/02 01:30:50;;;;;;;;;;;13.00;99.90;;;;;;7350642;19;112793;-91
2022/01/02 01:33:17;;;;;;;;;;;12.90;99.90;;;;;;7346198;19;112609;-90
2022/01/02 01:35:55;;;;;;;;;;;12.90;99.90;;;;;;7349502;19;109392;-91
2022/01/02 01:42:32;;;;;;;;;;;12.90;99.90;;;;;;7346368;19;109789;-91
2022/01/02 01:47:53;;;;;;;;;;;12.90;99.90;;;;;;7353176;19;110681;-90
2022/01/02 01:50:31;;;;;;;;;;;12.80;99.90;;;;;;7347406;19;109633;-90
2022/01/02 01:53:05;;;;;;;;;;;12.80;99.90;;;;;;7349496;19;113221;-90
2022/01/02 01:55:35;;;;;;;;;;;12.80;99.90;;;;;;7346115;19;114975;-90
2022/01/02 01:58:06;;;;;;;;;;;12.80;99.90;;;;;;7348220;19;109603;-91
2022/01/02 02:00:33;;;;;;;;;;;12.90;99.90;;;;;;7347222;19;114015;-90
2022/01/02 02:03:01;;;;;;;;;;;12.90;99.90;;;;;;7345732;19;113290;-87
2022/01/02 02:05:29;;;;;;;;;;;12.90;99.90;;;;;;7348295;19;109467;-91
2022/01/02 02:07:56;;;;;;;;;;;12.90;99.90;;;;;;7345499;19;114118;-90
2022/01/02 02:10:26;;;;;;;;;;;12.90;99.90;;;;;;7352944;19;110570;-91
2022/01/02 02:12:56;;;;;;;;;;;12.90;99.90;;;;;;7345518;19;111063;-89
2022/01/02 02:15:28;;;;;;;;;;;13.00;99.90;;;;;;7346746;19;114401;-92
2022/01/02 02:18:05;;;;;;;;;;;13.00;99.90;;;;;;7344509;19;109530;-91
2022/01/02 02:20:42;;;;;;;;;;;13.00;99.90;;;;;;7346728;19;112199;-90
2022/01/02 02:23:13;;;;;;;;;;;13.00;99.90;;;;;;7348295;19;114803;-90
2022/01/02 02:25:40;;;;;;;;;;;13.10;99.90;;;;;;7345872;19;109370;-91
2022/01/02 02:28:09;;;;;;;;;;;13.10;99.90;;;;;;7345300;19;113781;-91
2022/01/02 02:30:43;;;;;;;;;;;13.10;99.90;;;;;;7344099;19;110833;-90
2022/01/02 02:33:11;;;;;;;;;;;13.10;99.90;;;;;;7352020;19;109297;-91
2022/01/02 02:35:42;;;;;;;;;;;13.10;99.90;;;;;;7344583;19;113729;-90
2022/01/02 02:38:10;;;;;;;;;;;13.10;99.90;;;;;;7345427;19;109511;-89
2022/01/02 02:40:45;;;;;;;;;;;13.10;99.90;;;;;;7346854;19;112277;-92
2022/01/02 02:43:44;;;;;;;;;;;13.10;99.90;;;;;;7344114;19;115038;-89
2022/01/02 02:49:01;;;;;;;;;;;13.10;99.90;;;;;;7349033;19;111427;-92
2022/01/02 02:51:37;;;;;;;;;;;13.00;99.90;;;;;;7345049;19;114631;-91
2022/01/02 02:54:05;;;;;;;;;;;13.00;99.90;;;;;;7347452;19;109380;-89
2022/01/02 02:59:22;;;;;;;;;;;13.00;99.90;;;;;;7347268;19;109501;-92
2022/01/02 03:01:49;;;;;;;;;;;13.00;99.90;;;;;;7344199;19;110814;-89
2022/01/02 03:04:18;;;;;;;;;;;13.00;99.90;;;;;;7344817;19;115025;-90
2022/01/02 03:06:47;;;;;;;;;;;13.10;99.90;;;;;;7347282;19;109507;-89
2022/01/02 03:12:03;;;;;;;;;;;13.10;99.90;;;;;;7347330;19;112331;-92
2022/01/02 03:14:32;;;;;;;;;;;13.10;99.90;;;;;;7344824;19;109343;-90
2022/01/02 03:17:03;;;;;;;;;;;13.20;99.90;;;;;;7349345;19;113612;-90
2022/01/02 03:19:31;;;;;;;;;;;13.10;99.90;;;;;;7342377;19;110271;-88
2022/01/02 03:21:58;;;;;;;;;;;13.20;99.90;;;;;;7342425;19;111498;-90
2022/01/02 03:24:26;;;;;;;;;;;13.20;99.90;;;;;;7345029;19;111684;-91
2022/01/02 04:12:14;;;;;;;;;;;;;;;;;;;;;
2022/01/02 04:18:54;;;;;;;;;;;;;;;;;;;;;
2022/01/02 04:22:01;;;;;;;;;;;;;;;;;;;;;
2022/01/02 04:28:03;;;;;;;;;;;13.10;99.90;;;;;;7340629;19;109955;-88
2022/01/02 04:30:31;;;;;;;;;;;13.10;99.90;;;;;;7345907;19;113395;-88
2022/01/02 04:53:45;;;;;;;;;;;13.10;99.90;;;;;;6969936;19;5892728;-90
2022/01/02 04:56:29;;;;;;;;;;;13.10;99.90;;;;;;7380644;19;112165;-90
2022/01/02 04:59:02;;;;;;;;;;;13.00;99.90;;;;;;7379822;19;113851;-89
2022/01/02 05:01:38;;;;;;;;;;;13.00;99.90;;;;;;7379190;19;109487;-90
2022/01/02 05:04:21;;;;;;;;;;;13.10;99.90;;;;;;7380942;19;113519;-90
2022/01/02 05:10:14;;;;;;;;;;;13.00;99.90;;;;;;7382477;19;109312;-90
2022/01/02 05:12:48;;;;;;;;;;;13.00;99.90;;;;;;7380432;19;113283;-91
2022/01/02 05:15:48;;;;;;;;;;;13.00;99.90;;;;;;7384555;19;113932;-91
2022/01/02 05:18:37;;;;;;;;;;;13.00;99.90;;;;;;7378035;19;112840;-91
2022/01/02 05:21:28;;;;;;;;;;;12.90;99.90;;;;;;7377374;19;113432;-90
2022/01/02 05:24:06;;;;;;;;;;;12.90;99.90;;;;;;7380508;19;109389;-90
2022/01/02 05:26:34;;;;;;;;;;;13.00;99.90;;;;;;7380073;19;113185;-89
2022/01/02 05:29:10;;;;;;;;;;;13.00;99.90;;;;;;7379242;19;113778;-89
2022/01/02 05:31:42;;;;;;;;;;;13.00;99.90;;;;;;7379781;19;109296;-90
2022/01/02 05:34:21;;;;;;;;;;;12.90;99.90;;;;;;7379369;19;112105;-90
2022/01/02 05:36:51;;;;;;;;;;;12.90;99.90;;;;;;7378866;19;113665;-90
2022/01/02 05:39:20;;;;;;;;;;;12.90;99.90;;;;;;7384779;19;109378;-89
2022/01/02 05:41:48;;;;;;;;;;;12.90;99.90;;;;;;7377328;19;113957;-90
2022/01/02 05:44:16;;;;;;;;;;;12.80;99.90;;;;;;7379597;19;109395;-89
2022/01/02 05:46:43;;;;;;;;;;;12.80;99.90;;;;;;7378715;19;114469;-89
2022/01/02 05:49:11;;;;;;;;;;;12.80;99.90;;;;;;7378918;19;113949;-88
2022/01/02 05:51:38;;;;;;;;;;;12.70;99.90;;;;;;7379598;19;109766;-89
2022/01/02 05:54:05;;;;;;;;;;;12.80;99.90;;;;;;7353050;19;113499;-90
2022/01/02 05:56:32;;;;;;;;;;;12.70;99.90;;;;;;7349633;19;115440;-88
2022/01/02 05:58:59;;;;;;;;;;;12.70;99.90;;;;;;7350147;19;109411;-90
2022/01/02 06:01:26;;;;;;;;;;;12.70;99.90;;;;;;7354599;19;114003;-89
2022/01/02 06:03:53;;;;;;;;;;;12.70;99.90;;;;;;7351250;19;109337;-90
2022/01/02 06:06:20;;;;;;;;;;;12.70;99.90;;;;;;7350701;19;111002;-90
2022/01/02 06:08:47;;;;;;;;;;;12.70;99.90;;;;;;7349747;19;114626;-90
2022/01/02 06:11:14;;;;;;;;;;;12.70;99.90;;;;;;7350445;19;109300;-90
2022/01/02 06:13:42;;;;;;;;;;;12.70;99.90;;;;;;7350720;19;112038;-91
2022/01/02 06:16:12;;;;;;;;;;;12.70;99.90;;;;;;7348797;19;111016;-91
2022/01/02 06:18:39;;;;;;;;;;;12.70;99.90;;;;;;7350812;19;109264;-90
2022/01/02 06:21:06;;;;;;;;;;;12.70;99.90;;;;;;7349252;19;113812;-89
2022/01/02 06:23:33;;;;;;;;;;;12.70;99.90;;;;;;7355664;19;112114;-90
2022/01/02 06:26:00;;;;;;;;;;;12.70;99.90;;;;;;7351628;19;112610;-90
2022/01/02 06:28:27;;;;;;;;;;;12.70;99.90;;;;;;7348002;19;112973;-89
2022/01/02 06:30:54;;;;;;;;;;;12.70;99.90;;;;;;7350565;19;109331;-90
2022/01/02 06:33:21;;;;;;;;;;;12.70;99.90;;;;;;7348751;19;113369;-90
2022/01/02 06:35:49;;;;;;;;;;;12.70;99.90;;;;;;7350459;19;115536;-89
2022/01/02 06:38:18;;;;;;;;;;;12.70;99.90;;;;;;7350377;19;109499;-91
2022/01/02 06:40:45;;;;;;;;;;;12.80;99.90;;;;;;7348704;19;110693;-91
2022/01/02 06:43:16;;;;;;;;;;;12.80;99.90;;;;;;7347995;19;112484;-91
2022/01/02 06:45:44;;;;;;;;;;;12.80;99.90;;;;;;7354500;19;109494;-92
2022/01/02 06:48:11;;;;;;;;;;;12.80;99.90;;;;;;7351175;19;114061;-91
2022/01/02 06:50:39;;;;;;;;;;;12.80;99.90;;;;;;7349071;19;109247;-91
2022/01/02 06:53:06;;;;;;;;;;;12.90;99.90;;;;;;7348710;19;109761;-91
2022/01/02 06:55:33;;;;;;;;;;;12.90;99.90;;;;;;7349602;19;114274;-91
2022/01/02 06:58:01;;;;;;;;;;;12.90;99.90;;;;;;7348306;19;110173;-90
2022/01/02 07:00:28;;;;;;;;;;;12.90;99.90;;;;;;7349171;19;113655;-91
2022/01/02 07:02:55;;;;;;;;;;;12.90;99.90;;;;;;7346532;19;114474;-91
2022/01/02 07:05:22;;;;;;;;;;;12.90;99.90;;;;;;7347731;19;109494;-90
2022/01/02 07:07:51;;;;;;;;;;;12.90;99.90;;;;;;7352927;19;113151;-91
2022/01/02 07:10:18;;;;;;;;;;;12.90;99.90;;;;;;7348001;19;109894;-91
2022/01/02 07:12:45;;;;;;;;;;;12.90;99.90;;;;;;7348565;19;115266;-90
2022/01/02 07:15:12;;;;;;;;;;;13.00;99.90;;;;;;7347566;19;114205;-90
2022/01/02 07:17:39;;;;;;;;;;;13.00;99.90;;;;;;7348706;19;109368;-90
2022/01/02 07:20:07;;;;;;;;;;;12.90;99.90;;;;;;7347335;19;112232;-91
2022/01/02 07:22:34;;;;;;;;;;;12.90;99.90;;;;;;7348513;19;112854;-89
2022/01/02 07:25:03;;;;;;;;;;;12.90;99.90;;;;;;7348228;19;109318;-91
2022/01/02 07:27:30;;;;;;;;;;;12.90;99.90;;;;;;7354387;19;109968;-91
2022/01/02 07:29:58;;;;;;;;;;;12.90;99.90;;;;;;7347289;19;109353;-91
2022/01/02 07:32:26;;;;;;;;;;;12.90;99.90;;;;;;7345321;19;112921;-90
2022/01/02 07:34:53;;;;;;;;;;;12.90;99.90;;;;;;7346330;19;113768;-89
2022/01/02 07:37:19;;;;;;;;;;;12.90;99.90;;;;;;7346760;19;109728;-89
2022/01/02 07:39:46;;;;;;;;;;;12.90;99.90;;;;;;7347036;19;110845;-89
2022/01/02 07:42:13;;;;;;;;;;;12.90;99.90;;;;;;7344940;19;115386;-91
2022/01/02 07:44:40;;;;;;;;;;;12.90;99.90;;;;;;7347126;19;109552;-89
2022/01/02 07:47:08;;;;;;;;;;;12.90;99.90;;;;;;7346062;19;112482;-89
2022/01/02 07:49:35;;;;;;;;;;;12.90;99.90;;;;;;7353325;19;114468;-90
2022/01/02 07:52:02;;;;;;;;;;;12.90;99.90;;;;;;7345421;19;113566;-91
2022/01/02 07:54:29;;;;;;;;;;;12.90;99.90;;;;;;7347798;19;114456;-90
2022/01/02 07:56:56;;;;;;;;;;;12.90;99.90;;;;;;7346329;19;109504;-91
2022/01/02 08:10:09;;;;;;;;;;;;;;;;;;;;;
2022/01/02 09:34:10;;;;;;;;;;;14.30;99.90;;;;;;7344327;19;110278;-89
2022/01/02 09:37:01;;;;;;;;;;;14.40;99.90;;;;;;7349234;19;113778;-90
2022/01/02 09:43:30;;;;;;;;;;;14.30;99.90;;;;;;7348717;19;109812;-93
2022/01/02 09:46:42;;;;;;;;;;;14.30;99.90;;;;;;7340790;19;111938;-90
2022/01/02 09:59:53;;;;;;;;;;;14.20;99.90;;;;;;7343696;19;109486;-90
2022/01/02 10:13:53;;;;;;;;;;;;;;;;;;;;;
2022/01/02 11:13:50;;;;;;;;;;;;;;;;;;;;;
2022/01/02 12:15:55;;;;;;;;;;;15.20;99.90;;;;;;7335290;19;109640;-89
2022/01/02 12:18:48;;;;;;;;;;;15.20;99.90;;;;;;7338722;19;109398;-89
2022/01/02 12:21:36;;;;;;;;;;;15.20;99.90;;;;;;7337923;19;109697;-88
2022/01/02 12:24:51;;;;;;;;;;;15.30;99.90;;;;;;7347159;19;113780;-89
2022/01/02 12:27:29;;;;;;;;;;;15.30;99.90;;;;;;7341263;19;111361;-91
2022/01/02 12:30:12;;;;;;;;;;;15.40;99.90;;;;;;7338575;19;113330;-89
2022/01/02 12:32:56;;;;;;;;;;;15.50;99.90;;;;;;7342282;19;109372;-90
2022/01/02 12:35:43;;;;;;;;;;;15.60;99.90;;;;;;7341621;19;113005;-89
2022/01/02 12:38:12;;;;;;;;;;;15.60;99.90;;;;;;7340271;19;114491;-90
2022/01/02 12:40:58;;;;;;;;;;;15.60;99.90;;;;;;7340310;19;109298;-89
2022/01/02 12:43:39;;;;;;;;;;;15.60;99.90;;;;;;7338591;19;113855;-89
2022/01/02 12:46:37;;;;;;;;;;;15.70;99.90;;;;;;7333602;19;111649;-91
2022/01/02 12:56:27;;;;;;;;;;;15.70;99.90;;;;;;7339698;19;109321;-89
2022/01/02 13:00:11;;;;;;;;;;;;;;;;;;;;;
2022/01/02 13:12:58;;;;;;;;;;;15.70;99.90;;;;;;7340051;19;109557;-88
2022/01/02 13:15:38;;;;;;;;;;;15.70;99.90;;;;;;7342606;19;109624;-88
2022/01/02 13:18:43;;;;;;;;;;;15.80;99.90;;;;;;7347776;19;110708;-88
2022/01/02 13:21:32;;;;;;;;;;;15.80;99.90;;;;;;7336921;19;113268;-89
2022/01/02 13:24:58;;;;;;;;;;;;;;;;;;;;;
2022/01/02 13:28:01;;;;;;;;;;;15.60;99.90;;;;;;7330712;19;110319;-90
2022/01/02 13:31:02;;;;;;;;;;;15.70;99.90;;;;;;7334050;19;109412;-89
2022/01/02 13:33:45;;;;;;;;;;;15.60;99.90;;;;;;7332377;19;109329;-89
2022/01/02 13:36:23;;;;;;;;;;;15.60;99.90;;;;;;7337100;19;114102;-88
2022/01/02 13:42:03;;;;;;;;;;;15.50;99.90;;;;;;7336979;19;109611;-90
2022/01/02 13:44:42;;;;;;;;;;;15.50;99.90;;;;;;7336726;19;109530;-89
2022/01/02 13:47:10;;;;;;;;;;;15.40;99.90;;;;;;7334764;19;110756;-89
2022/01/02 13:49:45;;;;;;;;;;;15.40;99.90;;;;;;7338396;19;115410;-89
2022/01/02 13:52:15;;;;;;;;;;;15.40;99.90;;;;;;7335950;19;109513;-90
2022/01/02 13:54:43;;;;;;;;;;;15.30;99.90;;;;;;7336460;19;109339;-89
2022/01/02 13:57:15;;;;;;;;;;;15.40;99.90;;;;;;7336567;19;114926;-90
2022/01/02 13:59:42;;;;;;;;;;;15.30;99.90;;;;;;7336871;19;110061;-89
2022/01/02 14:02:10;;;;;;;;;;;15.30;99.90;;;;;;7336011;19;113026;-90
2022/01/02 14:04:59;;;;;;;;;;;15.30;99.90;;;;;;7343757;19;115114;-89
2022/01/02 14:11:37;;;;;;;;;;;;;;;;;;;;;
2022/01/02 14:14:47;;;;;;;;;;;15.10;99.90;;;;;;7337561;19;109351;-91
2022/01/02 14:17:39;;;;;;;;;;;15.20;99.90;;;;;;7337438;19;112811;-90
2022/01/02 14:23:35;;;;;;;;;;;15.10;99.90;;;;;;7332884;19;109967;-90
2022/01/02 14:26:03;;;;;;;;;;;15.10;99.90;;;;;;7336203;19;112304;-88
2022/01/02 14:28:31;;;;;;;;;;;15.10;99.90;;;;;;7335023;19;113730;-89
2022/01/02 14:31:00;;;;;;;;;;;15.00;99.90;;;;;;7339976;19;110201;-90
2022/01/02 14:33:30;;;;;;;;;;;14.90;99.90;;;;;;7334429;19;114047;-90
2022/01/02 14:35:57;;;;;;;;;;;14.90;99.90;;;;;;7336338;19;109384;-89
2022/01/02 14:38:25;;;;;;;;;;;14.90;99.90;;;;;;7336993;19;110393;-88
2022/01/02 14:40:59;;;;;;;;;;;14.90;99.90;;;;;;7335880;19;113675;-88
2022/01/02 14:43:26;;;;;;;;;;;14.90;99.90;;;;;;7339988;19;109375;-87
2022/01/02 14:45:54;;;;;;;;;;;14.90;99.90;;;;;;7342942;19;111093;-87
2022/01/02 14:48:23;;;;;;;;;;;14.90;99.90;;;;;;7345445;19;112047;-89
2022/01/02 14:50:50;;;;;;;;;;;14.90;99.90;;;;;;7341986;19;109662;-88
2022/01/02 14:53:17;;;;;;;;;;;14.90;99.90;;;;;;7349567;19;111239;-89
2022/01/02 14:55:44;;;;;;;;;;;14.90;99.90;;;;;;7343075;19;109411;-88
2022/01/02 14:58:11;;;;;;;;;;;14.80;99.90;;;;;;7343226;19;109770;-89
2022/01/02 15:00:38;;;;;;;;;;;14.80;99.90;;;;;;7342395;19;111887;-85
2022/01/02 15:03:05;;;;;;;;;;;14.70;99.90;;;;;;7341139;19;110834;-86
2022/01/02 15:05:32;;;;;;;;;;;14.60;99.90;;;;;;7344861;19;110939;-85
2022/01/02 15:07:59;;;;;;;;;;;14.60;99.90;;;;;;7343267;19;111908;-86
2022/01/02 15:10:26;;;;;;;;;;;14.50;99.90;;;;;;7349468;19;109394;-85
2022/01/02 15:12:53;;;;;;;;;;;14.50;99.90;;;;;;7348875;19;111380;-85
2022/01/02 15:15:21;;;;;;;;;;;14.40;99.90;;;;;;7355515;19;111749;-85
2022/01/02 15:17:48;;;;;;;;;;;14.40;99.90;;;;;;7349266;19;110854;-85
2022/01/02 15:20:15;;;;;;;;;;;14.40;99.90;;;;;;7351872;19;112378;-86
2022/01/02 15:22:42;;;;;;;;;;;14.30;99.90;;;;;;7350320;19;109318;-85
2022/01/02 15:25:09;;;;;;;;;;;14.30;99.90;;;;;;7349937;19;110704;-85
2022/01/02 15:27:38;;;;;;;;;;;14.30;99.90;;;;;;7349092;19;110659;-84
2022/01/02 15:30:05;;;;;;;;;;;14.30;99.90;;;;;;7350766;19;109766;-85
2022/01/02 15:32:34;;;;;;;;;;;14.30;99.90;;;;;;7350290;19;109585;-85
2022/01/02 15:35:01;;;;;;;;;;;14.30;99.90;;;;;;7348628;19;116274;-85
2022/01/02 15:37:28;;;;;;;;;;;14.30;99.90;;;;;;7355501;19;109267;-85
2022/01/02 15:39:55;;;;;;;;;;;14.30;99.90;;;;;;7350213;19;112250;-84
2022/01/02 15:42:22;;;;;;;;;;;14.40;99.90;;;;;;7351110;19;109832;-85
2022/01/02 15:44:48;;;;;;;;;;;14.40;99.90;;;;;;7346412;19;109957;-86
2022/01/02 15:47:15;;;;;;;;;;;14.40;99.90;;;;;;7348656;19;112200;-85
2022/01/02 15:49:42;;;;;;;;;;;14.40;99.90;;;;;;7350487;19;109297;-86
2022/01/02 15:52:09;;;;;;;;;;;14.30;99.90;;;;;;7347916;19;110943;-85
2022/01/02 15:54:37;;;;;;;;;;;14.30;99.90;;;;;;7348439;19;111818;-85
2022/01/02 15:57:04;;;;;;;;;;;14.30;99.90;;;;;;7353617;19;109530;-86
2022/01/02 15:59:31;;;;;;;;;;;14.30;99.90;;;;;;7350154;19;110588;-84
2022/01/02 16:01:58;;;;;;;;;;;14.30;99.90;;;;;;7349046;19;109387;-85
2022/01/02 16:04:25;;;;;;;;;;;14.30;99.90;;;;;;7348751;19;111145;-84
2022/01/02 16:06:52;;;;;;;;;;;14.30;99.90;;;;;;7347338;19;110286;-86
2022/01/02 16:09:19;;;;;;;;;;;14.10;99.90;;;;;;7349934;19;109359;-85
2022/01/02 16:11:46;;;;;;;;;;;14.00;99.90;;;;;;7349889;19;111151;-86
2022/01/02 16:14:13;;;;;;;;;;;14.00;99.90;;;;;;7346833;19;111617;-85
2022/01/02 16:16:40;;;;;;;;;;;13.90;99.90;;;;;;7337430;19;109362;-86
2022/01/02 16:19:06;;;;;;;;;;;13.90;99.90;;;;;;7341150;19;111797;-86
2022/01/02 16:21:40;;;;;;;;;;;13.90;99.90;;;;;;7344180;19;109408;-85
2022/01/02 16:24:07;;;;;;;;;;;13.90;99.90;;;;;;7338137;19;111146;-85
2022/01/02 16:26:34;;;;;;;;;;;13.90;99.90;;;;;;7345662;19;112084;-85
2022/01/02 16:29:05;;;;;;;;;;;13.90;99.90;;;;;;7346245;19;109428;-84
2022/01/02 16:31:32;;;;;;;;;;;13.80;99.90;;;;;;7347765;19;111754;-85
2022/01/02 16:33:59;;;;;;;;;;;13.80;99.90;;;;;;7347461;19;111781;-84
2022/01/02 16:36:26;;;;;;;;;;;13.80;99.90;;;;;;7348875;19;109457;-85
2022/01/02 16:38:53;;;;;;;;;;;13.80;99.90;;;;;;7348993;19;112647;-84
2022/01/02 16:41:20;;;;;;;;;;;13.80;99.90;;;;;;7353410;19;112237;-85
2022/01/02 16:43:48;;;;;;;;;;;13.80;99.90;;;;;;7345685;19;109837;-84
2022/01/02 16:46:15;;;;;;;;;;;13.80;99.90;;;;;;7347605;19;116415;-84
2022/01/02 16:48:42;;;;;;;;;;;13.80;99.90;;;;;;7346974;19;109766;-84
2022/01/02 16:51:09;;;;;;;;;;;13.70;99.90;;;;;;7348474;19;109742;-84
2022/01/02 16:53:36;;;;;;;;;;;13.70;99.90;;;;;;7347647;19;112914;-85
2022/01/02 16:56:03;;;;;;;;;;;13.70;99.90;;;;;;7347732;19;109295;-85
2022/01/02 16:58:30;;;;;;;;;;;13.60;99.90;;;;;;7348487;19;111129;-85
2022/01/02 17:00:57;;;;;;;;;;;13.60;99.90;;;;;;7346399;19;112538;-85
2022/01/02 17:03:24;;;;;;;;;;;13.70;99.90;;;;;;7352534;19;109476;-85
2022/01/02 17:05:52;;;;;;;;;;;13.70;99.90;;;;;;7346053;19;112074;-85
2022/01/02 17:08:19;;;;;;;;;;;13.70;99.90;;;;;;7347968;19;109925;-84
2022/01/02 17:10:46;;;;;;;;;;;13.70;99.90;;;;;;7346192;19;114082;-85
2022/01/02 17:13:13;;;;;;;;;;;13.70;99.90;;;;;;7346991;19;111977;-86
2022/01/02 17:15:40;;;;;;;;;;;13.70;99.90;;;;;;7346698;19;109665;-85
2022/01/02 17:18:07;;;;;;;;;;;13.70;99.90;;;;;;7347377;19;111358;-86
2022/01/02 17:20:40;;;;;;;;;;;13.70;99.90;;;;;;7346486;19;112342;-85
2022/01/02 17:23:06;;;;;;;;;;;13.70;99.90;;;;;;7345644;19;109334;-86
2022/01/02 17:25:34;;;;;;;;;;;13.70;99.90;;;;;;7351051;19;109145;-85
2022/01/02 17:28:01;;;;;;;;;;;13.60;99.90;;;;;;7346185;19;109421;-87
2022/01/02 17:30:29;;;;;;;;;;;13.70;99.90;;;;;;7346314;19;114213;-85
2022/01/02 17:32:56;;;;;;;;;;;13.60;99.90;;;;;;7345503;19;111854;-84
2022/01/02 17:35:23;;;;;;;;;;;13.60;99.90;;;;;;7346913;19;109338;-85
2022/01/02 17:37:50;;;;;;;;;;;13.60;99.90;;;;;;7346204;19;113125;-85
2022/01/02 17:40:18;;;;;;;;;;;13.60;99.90;;;;;;7346258;19;112100;-86
2022/01/02 17:42:45;;;;;;;;;;;13.60;99.90;;;;;;7346241;19;109860;-86
2022/01/02 17:45:12;;;;;;;;;;;13.50;99.90;;;;;;7347718;19;111096;-84
2022/01/02 17:47:39;;;;;;;;;;;13.40;99.90;;;;;;7346157;19;109962;-84
2022/01/02 17:50:10;;;;;;;;;;;13.40;99.90;;;;;;7344733;19;113839;-86
2022/01/02 17:52:37;;;;;;;;;;;13.40;99.90;;;;;;7345641;19;112412;-85
2022/01/02 17:55:04;;;;;;;;;;;13.40;99.90;;;;;;7346280;19;109705;-86
2022/01/02 17:57:35;;;;;;;;;;;13.40;99.90;;;;;;7347056;19;111902;-85
2022/01/02 18:00:03;;;;;;;;;;;13.30;99.90;;;;;;7344636;19;112934;-86
2022/01/02 18:02:30;;;;;;;;;;;13.40;99.90;;;;;;7345916;19;109304;-85
2022/01/02 18:04:57;;;;;;;;;;;13.40;99.90;;;;;;7342858;19;112145;-87
2022/01/02 18:07:24;;;;;;;;;;;13.40;99.90;;;;;;7349641;19;110199;-85
2022/01/02 18:09:56;;;;;;;;;;;13.40;99.90;;;;;;7346379;19;110477;-85
2022/01/02 18:12:23;;;;;;;;;;;13.40;99.90;;;;;;7345228;19;115186;-85
2022/01/02 18:14:50;;;;;;;;;;;13.40;99.90;;;;;;7345287;19;109427;-84
2022/01/02 18:17:19;;;;;;;;;;;13.40;99.90;;;;;;7345805;19;109384;-84
2022/01/02 18:19:46;;;;;;;;;;;13.40;99.90;;;;;;7345976;19;112910;-84
2022/01/02 18:22:13;;;;;;;;;;;13.40;99.90;;;;;;7345479;19;109739;-84
2022/01/02 18:24:39;;;;;;;;;;;13.40;99.90;;;;;;7345048;19;110585;-84
2022/01/02 18:27:06;;;;;;;;;;;13.40;99.90;;;;;;7344400;19;111873;-84
2022/01/02 18:29:34;;;;;;;;;;;13.30;99.90;;;;;;7351096;19;109318;-83
2022/01/02 18:32:02;;;;;;;;;;;13.30;99.90;;;;;;7344819;19;112245;-83
2022/01/02 18:34:28;;;;;;;;;;;13.20;99.90;;;;;;7346567;19;109885;-84
2022/01/02 18:36:55;;;;;;;;;;;13.20;99.90;;;;;;7343162;19;110673;-83
2022/01/02 18:39:22;;;;;;;;;;;13.20;99.90;;;;;;7344930;19;112261;-83
2022/01/02 18:41:50;;;;;;;;;;;13.10;99.90;;;;;;7345847;19;109347;-84
2022/01/02 18:44:17;;;;;;;;;;;13.10;99.90;;;;;;7347396;19;110592;-84
2022/01/02 18:46:44;;;;;;;;;;;13.10;99.90;;;;;;7350838;19;112408;-83
2022/01/02 18:49:13;;;;;;;;;;;13.10;99.90;;;;;;7349784;19;109364;-84
2022/01/02 18:51:42;;;;;;;;;;;13.00;99.90;;;;;;7357351;19;113844;-83
2022/01/02 18:54:09;;;;;;;;;;;13.00;99.90;;;;;;7351436;19;109334;-83
2022/01/02 18:56:38;;;;;;;;;;;12.90;99.90;;;;;;7351952;19;110716;-83
2022/01/02 18:59:06;;;;;;;;;;;12.90;99.90;;;;;;7349591;19;112370;-83
2022/01/02 19:01:35;;;;;;;;;;;12.80;99.90;;;;;;7352400;19;109404;-83
2022/01/02 19:04:04;;;;;;;;;;;12.70;99.90;;;;;;7351093;19;111180;-83
2022/01/02 19:06:30;;;;;;;;;;;12.60;99.90;;;;;;7351024;19;110482;-83
2022/01/02 19:08:57;;;;;;;;;;;12.50;99.90;;;;;;7349770;19;109536;-83
2022/01/02 19:11:24;;;;;;;;;;;12.40;99.90;;;;;;7349856;19;110878;-83
2022/01/02 19:13:52;;;;;;;;;;;12.40;99.90;;;;;;7357187;19;112058;-83
2022/01/02 19:16:19;;;;;;;;;;;12.40;99.90;;;;;;7349579;19;111143;-83
2022/01/02 19:18:46;;;;;;;;;;;12.30;99.90;;;;;;7350823;19;112054;-83
2022/01/02 19:21:13;;;;;;;;;;;12.30;99.90;;;;;;7349317;19;109470;-83
2022/01/02 19:23:40;;;;;;;;;;;12.30;99.90;;;;;;7351757;19;109199;-83
2022/01/02 19:26:06;;;;;;;;;;;12.30;99.90;;;;;;7347487;19;112155;-83
2022/01/02 19:28:33;;;;;;;;;;;12.30;99.90;;;;;;7349942;19;109385;-82
2022/01/02 19:31:20;;;;;;;;;;;12.40;99.90;;;;;;7347815;19;112425;-83
2022/01/02 19:33:47;;;;;;;;;;;12.30;99.90;;;;;;7348400;19;111140;-83
2022/01/02 19:36:14;;;;;;;;;;;12.40;99.90;;;;;;7356182;19;109997;-83
2022/01/02 19:38:41;;;;;;;;;;;12.30;99.90;;;;;;7349842;19;111984;-83
2022/01/02 19:41:08;;;;;;;;;;;12.30;99.90;;;;;;7350210;19;109919;-83
2022/01/02 19:43:35;;;;;;;;;;;12.30;99.90;;;;;;7347961;19;110828;-83
2022/01/02 19:46:02;;;;;;;;;;;12.30;99.90;;;;;;7347923;19;112118;-83
2022/01/02 19:48:29;;;;;;;;;;;12.30;99.90;;;;;;7348120;19;109462;-84
2022/01/02 19:50:58;;;;;;;;;;;12.20;99.90;;;;;;7350981;19;110586;-84
2022/01/02 19:53:26;;;;;;;;;;;12.30;99.90;;;;;;7349655;19;112019;-84
2022/01/02 19:55:52;;;;;;;;;;;12.30;99.90;;;;;;7355403;19;109369;-83
2022/01/02 19:58:19;;;;;;;;;;;12.30;99.90;;;;;;7348446;19;112434;-83
2022/01/02 20:00:46;;;;;;;;;;;12.40;99.90;;;;;;7350871;19;109364;-83
2022/01/02 20:03:13;;;;;;;;;;;12.30;99.90;;;;;;7350299;19;110780;-83
2022/01/02 20:05:41;;;;;;;;;;;12.30;99.90;;;;;;7345790;19;111956;-83
2022/01/02 20:08:08;;;;;;;;;;;12.30;99.90;;;;;;7350340;19;109393;-83
2022/01/02 20:10:34;;;;;;;;;;;12.20;99.90;;;;;;7348215;19;110074;-83
2022/01/02 20:13:03;;;;;;;;;;;12.30;99.90;;;;;;7347863;19;111947;-83
2022/01/02 20:15:33;;;;;;;;;;;12.40;99.90;;;;;;7349514;19;111165;-84
2022/01/02 20:18:00;;;;;;;;;;;12.40;99.90;;;;;;7354780;19;110736;-83
2022/01/02 20:20:29;;;;;;;;;;;12.30;99.90;;;;;;7349224;19;109316;-83
2022/01/02 20:22:58;;;;;;;;;;;12.30;99.90;;;;;;7349755;19;112774;-84
2022/01/02 20:25:29;;;;;;;;;;;12.40;99.90;;;;;;7346212;19;111869;-83
2022/01/02 20:27:57;;;;;;;;;;;12.40;99.90;;;;;;7349006;19;109201;-83
2022/01/02 20:30:24;;;;;;;;;;;12.40;99.90;;;;;;7349170;19;113674;-83
2022/01/02 20:32:54;;;;;;;;;;;12.40;99.90;;;;;;7345962;19;112202;-83
2022/01/02 20:35:23;;;;;;;;;;;12.40;99.90;;;;;;7347407;19;109481;-84
2022/01/02 20:37:50;;;;;;;;;;;12.40;99.90;;;;;;7346423;19;111166;-84
2022/01/02 20:40:17;;;;;;;;;;;12.40;99.90;;;;;;7352465;19;112535;-84
2022/01/02 20:42:44;;;;;;;;;;;12.50;99.90;;;;;;7347223;19;110758;-84
2022/01/02 20:45:12;;;;;;;;;;;12.40;99.90;;;;;;7345072;19;111060;-84
2022/01/02 20:47:40;;;;;;;;;;;12.50;99.90;;;;;;7348930;19;109333;-83
2022/01/02 20:50:08;;;;;;;;;;;12.50;99.90;;;;;;7344769;19;110685;-84
2022/01/02 20:52:35;;;;;;;;;;;12.50;99.90;;;;;;7348339;19;112215;-84
2022/01/02 20:55:09;;;;;;;;;;;12.60;99.90;;;;;;7348284;19;109536;-84
2022/01/02 20:57:36;;;;;;;;;;;12.60;99.90;;;;;;7347315;19;110890;-83
2022/01/02 21:00:08;;;;;;;;;;;12.60;99.90;;;;;;7346169;19;109948;-84
2022/01/02 21:02:35;;;;;;;;;;;12.50;99.90;;;;;;7353939;19;109329;-83
2022/01/02 21:05:02;;;;;;;;;;;12.60;99.90;;;;;;7345115;19;111927;-84
2022/01/02 21:07:29;;;;;;;;;;;12.60;99.90;;;;;;7344516;19;109395;-84
2022/01/02 21:09:56;;;;;;;;;;;12.60;99.90;;;;;;7348974;19;110753;-84
2022/01/02 21:12:23;;;;;;;;;;;12.50;99.90;;;;;;7345278;19;112565;-84